Time;durP1;ratioP1;P1;durP2;ratioP2;P2;SDS_P1;SDS_P2;PMS_P1;PMS_P2;Temp;Humidity;BMP_temperature;BMP_pressure;BME280_temperature;BME280_humidity;BME280_pressure;Samples;Min_cycle;Max_cycle;Signal;HPM_P1;HPM_P2
2023/09/27 00:00:42;;;;;;;26.30;13.25;;;12.50;94.40;;;;;;4955257;29;20051;-83
2023/09/27 00:03:07;;;;;;;26.07;15.33;;;12.50;94.10;;;;;;4954837;29;20018;-83
2023/09/27 00:05:34;;;;;;;22.00;14.43;;;12.50;94.20;;;;;;4937786;29;20552;-82
2023/09/27 00:08:00;;;;;;;26.15;17.80;;;12.50;94.20;;;;;;4937854;29;20026;-82
2023/09/27 00:10:27;;;;;;;26.60;19.20;;;12.60;94.20;;;;;;4955462;29;20023;-83
2023/09/27 00:12:52;;;;;;;26.92;19.60;;;12.60;94.10;;;;;;4956138;29;20020;-82
2023/09/27 00:15:18;;;;;;;34.03;24.10;;;12.60;94.00;;;;;;4955536;29;20046;-81
2023/09/27 00:17:44;;;;;;;34.67;27.40;;;12.70;93.80;;;;;;4955211;29;20023;-82
2023/09/27 00:20:12;;;;;;;31.73;26.83;;;12.70;93.70;;;;;;4942007;29;20028;-83
2023/09/27 00:22:37;;;;;;;;;;;12.80;93.70;;;;;;4965619;29;20034;-83
2023/09/27 00:25:11;;;;;;;35.53;26.08;;;12.70;93.50;;;;;;4966310;29;20013;-83
2023/09/27 00:27:37;;;;;;;34.65;25.52;;;12.70;93.60;;;;;;4954912;29;20016;-83
2023/09/27 00:30:09;;;;;;;30.88;23.67;;;12.60;93.70;;;;;;4937212;29;20094;-83
2023/09/27 00:32:35;;;;;;;31.45;22.08;;;12.60;93.70;;;;;;4937199;29;20035;-82
2023/09/27 00:35:03;;;;;;;31.02;23.17;;;12.50;93.70;;;;;;4954579;29;20031;-84
2023/09/27 00:37:29;;;;;;;27.80;18.85;;;12.50;93.80;;;;;;4936863;28;20032;-84
2023/09/27 00:39:57;;;;;;;26.48;17.08;;;12.50;93.90;;;;;;4955680;29;20046;-84
2023/09/27 00:42:23;;;;;;;26.30;15.63;;;12.50;94.00;;;;;;4966453;29;20015;-82
2023/09/27 00:44:49;;;;;;;21.58;14.13;;;12.50;93.90;;;;;;4961992;29;20103;-82
2023/09/27 00:47:15;;;;;;;25.83;13.35;;;12.50;93.90;;;;;;4937213;29;20470;-84
2023/09/27 00:49:41;;;;;;;22.08;13.90;;;12.40;94.00;;;;;;4954262;29;20112;-83
2023/09/27 00:52:08;;;;;;;23.05;13.55;;;12.50;94.00;;;;;;4954291;29;20020;-82
2023/09/27 00:54:34;;;;;;;22.95;13.70;;;12.40;94.00;;;;;;4936900;29;20714;-83
2023/09/27 00:57:02;;;;;;;20.15;13.38;;;12.50;94.10;;;;;;4954511;29;20034;-83
2023/09/27 00:59:29;;;;;;;21.35;12.88;;;12.50;94.00;;;;;;4954536;29;20056;-82
2023/09/27 01:01:55;;;;;;;26.25;12.57;;;12.60;94.00;;;;;;4936913;29;20477;-84
2023/09/27 01:04:22;;;;;;;18.63;11.37;;;12.60;93.90;;;;;;4954439;29;20106;-83
2023/09/27 01:06:48;;;;;;;17.97;11.63;;;12.70;93.70;;;;;;4954284;28;20092;-83
2023/09/27 01:09:14;;;;;;;16.70;11.05;;;12.70;93.60;;;;;;4954311;29;20027;-83
2023/09/27 01:11:40;;;;;;;19.58;11.68;;;12.70;93.50;;;;;;4952961;29;20548;-82
2023/09/27 01:14:06;;;;;;;17.98;11.95;;;12.70;93.60;;;;;;4954274;29;20063;-84
2023/09/27 01:16:32;;;;;;;15.88;12.02;;;12.70;93.60;;;;;;4954123;29;20105;-82
2023/09/27 01:19:04;;;;;;;19.30;11.52;;;12.80;93.60;;;;;;4936786;29;20122;-82
2023/09/27 01:21:31;;;;;;;17.25;10.95;;;12.90;93.40;;;;;;4936530;29;20689;-83
2023/09/27 01:23:57;;;;;;;13.27;10.35;;;13.00;93.50;;;;;;4953619;29;20046;-83
2023/09/27 01:26:23;;;;;;;19.67;10.98;;;13.00;93.10;;;;;;4954657;29;20031;-82
2023/09/27 01:28:50;;;;;;;18.00;11.38;;;12.90;93.00;;;;;;4953491;29;20034;-82
2023/09/27 01:31:16;;;;;;;15.35;11.20;;;12.90;93.00;;;;;;4953484;29;20050;-83
2023/09/27 01:33:41;;;;;;;18.30;11.25;;;12.90;93.00;;;;;;4936773;29;20042;-83
2023/09/27 01:36:07;;;;;;;20.63;11.77;;;12.80;93.00;;;;;;4953345;29;20042;-81
2023/09/27 01:38:34;;;;;;;23.15;10.77;;;12.80;93.10;;;;;;4953876;29;20027;-83
2023/09/27 01:41:00;;;;;;;17.80;10.38;;;12.70;93.20;;;;;;4936634;29;20034;-83
2023/09/27 01:43:25;;;;;;;19.65;11.73;;;12.60;93.30;;;;;;4954325;29;20505;-83
2023/09/27 01:45:51;;;;;;;16.40;11.38;;;12.60;93.40;;;;;;4954363;29;20023;-84
2023/09/27 01:48:19;;;;;;;15.00;11.88;;;12.60;93.50;;;;;;4953807;29;20081;-84
2023/09/27 01:50:45;;;;;;;;;;;12.60;93.60;;;;;;4955846;28;20027;-82
2023/09/27 01:53:11;;;;;;;19.38;12.23;;;12.60;93.50;;;;;;4956820;29;19997;-84
2023/09/27 01:55:37;;;;;;;16.67;12.02;;;12.60;93.60;;;;;;4939735;29;20086;-83
2023/09/27 01:58:03;;;;;;;15.30;11.60;;;12.70;93.60;;;;;;4956890;29;20105;-83
2023/09/27 02:00:29;;;;;;;15.93;11.65;;;12.70;93.60;;;;;;4957090;29;20560;-84
2023/09/27 02:02:59;;;;;;;22.02;13.93;;;12.70;93.50;;;;;;4956839;29;20027;-83
2023/09/27 02:05:26;;;;;;;22.90;14.25;;;12.70;93.60;;;;;;4957212;29;20521;-84
2023/09/27 02:07:52;;;;;;;22.63;14.43;;;12.70;93.50;;;;;;4938774;29;20124;-84
2023/09/27 02:10:18;;;;;;;19.45;13.90;;;12.70;93.50;;;;;;4959761;29;20059;-83
2023/09/27 02:12:44;;;;;;;25.27;14.40;;;12.70;93.60;;;;;;4976648;29;20038;-83
2023/09/27 02:15:12;;;;;;;23.00;16.08;;;12.60;94.00;;;;;;4946496;29;20066;-82
2023/09/27 02:17:39;;;;;;;27.45;15.18;;;12.60;93.60;;;;;;4970801;29;20073;-81
2023/09/27 02:20:12;;;;;;;20.50;15.38;;;12.50;93.70;;;;;;4957721;29;20517;-82
2023/09/27 02:22:42;;;;;;;23.08;14.00;;;12.50;93.90;;;;;;4956389;29;20030;-81
2023/09/27 02:25:11;;;;;;;19.80;14.48;;;12.40;94.00;;;;;;4938046;29;20026;-82
2023/09/27 02:27:38;;;;;;;21.38;13.68;;;12.40;94.10;;;;;;4938706;29;20028;-81
2023/09/27 02:30:07;;;;;;;24.63;14.10;;;12.30;94.10;;;;;;4955874;29;20039;-81
2023/09/27 02:32:34;;;;;;;19.80;13.75;;;12.30;94.20;;;;;;4955907;29;20031;-81
2023/09/27 02:35:00;;;;;;;26.17;15.00;;;12.30;94.40;;;;;;4956536;29;20385;-82
2023/09/27 02:37:26;;;;;;;23.50;13.40;;;12.20;94.40;;;;;;4939105;29;20393;-82
2023/09/27 02:39:52;;;;;;;22.65;15.32;;;12.20;94.50;;;;;;4956346;29;20019;-82
2023/09/27 02:42:17;;;;;;;27.10;13.52;;;12.20;94.60;;;;;;4935045;29;20031;-81
2023/09/27 02:44:43;;;;;;;22.10;13.52;;;12.20;94.60;;;;;;4953069;29;20441;-81
2023/09/27 02:47:09;;;;;;;22.27;14.32;;;12.10;94.70;;;;;;4956252;29;20083;-82
2023/09/27 02:49:36;;;;;;;20.42;14.88;;;12.10;94.80;;;;;;4938500;29;20425;-81
2023/09/27 02:52:02;;;;;;;23.65;13.23;;;12.10;94.90;;;;;;4956605;29;20027;-82
2023/09/27 02:54:28;;;;;;;21.10;14.77;;;12.00;95.00;;;;;;4955667;29;20040;-83
2023/09/27 02:56:54;;;;;;;18.33;13.32;;;12.00;95.00;;;;;;4955693;29;20473;-82
2023/09/27 02:59:20;;;;;;;20.98;13.40;;;12.00;95.10;;;;;;4955896;29;20114;-81
2023/09/27 03:01:47;;;;;;;26.77;14.88;;;11.90;95.20;;;;;;4954839;28;20097;-81
2023/09/27 03:04:15;;;;;;;19.52;12.90;;;11.90;95.20;;;;;;4954741;29;20114;-82
2023/09/27 03:06:42;;;;;;;17.90;12.57;;;11.90;95.30;;;;;;4955261;28;20134;-81
2023/09/27 03:09:11;;;;;;;18.90;12.55;;;11.90;95.40;;;;;;4955662;29;20061;-84
2023/09/27 03:11:39;;;;;;;21.75;13.43;;;11.90;95.40;;;;;;4955239;29;20027;-80
2023/09/27 03:14:05;;;;;;;;;;;11.90;95.40;;;;;;4955844;29;20070;-81
2023/09/27 03:16:31;;;;;;;20.20;13.05;;;11.90;95.20;;;;;;4955273;29;19911;-81
2023/09/27 03:18:59;;;;;;;15.90;12.60;;;11.90;95.50;;;;;;4955368;29;20109;-81
2023/09/27 03:21:29;;;;;;;19.63;12.65;;;11.90;95.50;;;;;;4954634;29;20028;-81
2023/09/27 03:23:55;;;;;;;15.95;12.52;;;11.90;95.50;;;;;;4954959;29;20023;-80
2023/09/27 03:26:25;;;;;;;14.10;11.23;;;11.90;95.60;;;;;;4955277;29;20023;-79
2023/09/27 03:28:51;;;;;;;22.48;12.77;;;12.00;95.60;;;;;;4955094;29;20389;-80
2023/09/27 03:31:17;;;;;;;23.35;12.55;;;12.00;95.60;;;;;;4955277;29;20035;-81
2023/09/27 03:33:44;;;;;;;17.52;12.32;;;12.00;95.40;;;;;;4955509;29;20491;-81
2023/09/27 03:36:11;;;;;;;20.45;12.93;;;12.10;95.40;;;;;;4954674;29;20065;-81
2023/09/27 03:38:37;;;;;;;22.10;13.38;;;12.10;95.30;;;;;;4938406;29;20054;-82
2023/09/27 03:41:09;;;;;;;36.15;16.42;;;12.10;95.20;;;;;;4955020;29;20041;-83
2023/09/27 03:43:35;;;;;;;21.23;15.70;;;12.20;95.10;;;;;;4954887;29;20027;-82
2023/09/27 03:46:05;;;;;;;19.90;15.10;;;12.20;95.00;;;;;;4938124;29;20503;-81
2023/09/27 03:48:31;;;;;;;21.13;16.02;;;12.20;95.10;;;;;;4937873;29;20053;-81
2023/09/27 03:50:57;;;;;;;25.35;15.57;;;12.20;94.90;;;;;;4964566;29;20058;-81
2023/09/27 03:53:24;;;;;;;22.63;15.10;;;12.10;95.00;;;;;;4952758;29;20015;-80
2023/09/27 03:55:49;;;;;;;23.35;14.88;;;12.10;95.00;;;;;;4937758;29;20400;-80
2023/09/27 03:58:16;;;;;;;20.63;13.32;;;12.10;95.00;;;;;;4956175;29;20389;-80
2023/09/27 04:00:41;;;;;;;21.45;13.85;;;12.10;95.00;;;;;;4952187;29;20051;-80
2023/09/27 04:03:07;;;;;;;22.77;14.52;;;12.10;94.90;;;;;;4962775;29;20118;-81
2023/09/27 04:05:34;;;;;;;24.60;14.07;;;12.00;94.90;;;;;;4955325;29;20102;-81
2023/09/27 04:08:00;;;;;;;23.57;14.00;;;12.00;94.90;;;;;;4953591;28;20054;-81
2023/09/27 04:10:28;;;;;;;20.60;13.52;;;12.10;95.10;;;;;;4954363;29;20062;-82
2023/09/27 04:12:54;;;;;;;20.30;12.27;;;12.10;95.00;;;;;;4954403;28;20023;-81
2023/09/27 04:15:20;;;;;;;18.70;13.80;;;12.20;94.80;;;;;;4954019;29;20039;-81
2023/09/27 04:17:46;;;;;;;19.98;13.82;;;12.20;94.80;;;;;;4954270;29;20030;-81
2023/09/27 04:20:15;;;;;;;18.20;13.10;;;12.20;95.00;;;;;;4937726;29;20497;-80
2023/09/27 04:22:43;;;;;;;18.80;12.63;;;12.30;94.90;;;;;;4957309;29;20062;-82
2023/09/27 04:25:12;;;;;;;20.40;14.73;;;12.30;94.90;;;;;;4955705;29;20427;-80
2023/09/27 04:27:42;;;;;;;18.77;13.25;;;12.40;94.80;;;;;;4955661;29;20031;-80
2023/09/27 04:30:11;;;;;;;18.20;12.77;;;12.60;94.50;;;;;;4942135;29;20161;-81
2023/09/27 04:32:44;;;;;;;20.08;12.60;;;12.70;94.20;;;;;;4959461;29;20075;-82
2023/09/27 04:35:10;;;;;;;25.75;13.48;;;12.90;94.10;;;;;;4939366;29;20035;-81
2023/09/27 04:37:39;;;;;;;20.65;14.23;;;13.10;93.80;;;;;;4955387;29;20019;-81
2023/09/27 04:40:11;;;;;;;18.65;14.20;;;13.30;93.40;;;;;;4954365;29;20047;-81
2023/09/27 04:42:42;;;;;;;22.15;13.93;;;13.40;93.00;;;;;;4936684;29;20033;-83
2023/09/27 04:45:10;;;;;;;16.52;12.90;;;13.50;92.90;;;;;;4936994;29;20341;-82
2023/09/27 04:47:37;;;;;;;17.55;13.13;;;13.50;92.70;;;;;;4954150;29;20469;-82
2023/09/27 04:50:03;;;;;;;22.30;13.00;;;13.50;92.60;;;;;;4954032;29;20023;-82
2023/09/27 04:52:29;;;;;;;18.02;13.15;;;13.50;92.50;;;;;;4937266;29;20555;-80
2023/09/27 04:54:58;;;;;;;18.33;13.30;;;13.50;92.30;;;;;;4936476;29;20039;-81
2023/09/27 04:57:24;;;;;;;21.15;13.95;;;13.40;92.40;;;;;;4953219;29;20023;-81
2023/09/27 04:59:54;;;;;;;18.33;13.70;;;13.30;92.90;;;;;;4936729;29;20548;-83
2023/09/27 05:02:20;;;;;;;23.58;13.77;;;13.20;93.30;;;;;;4934896;29;20111;-81
2023/09/27 05:04:47;;;;;;;26.20;13.60;;;13.20;93.10;;;;;;4953848;29;20023;-80
2023/09/27 05:07:20;;;;;;;19.10;14.20;;;13.10;93.20;;;;;;4936317;29;20075;-81
2023/09/27 05:09:47;;;;;;;22.92;14.90;;;13.10;93.30;;;;;;4953979;29;20273;-81
2023/09/27 05:12:13;;;;;;;17.90;13.13;;;13.10;93.20;;;;;;4954035;29;20023;-82
2023/09/27 05:14:39;;;;;;;20.30;13.15;;;13.10;93.10;;;;;;4953073;29;20047;-81
2023/09/27 05:17:05;;;;;;;19.35;13.45;;;13.10;93.30;;;;;;4953707;29;20046;-81
2023/09/27 05:19:31;;;;;;;19.58;12.35;;;13.10;93.40;;;;;;4937707;29;20031;-82
2023/09/27 05:21:56;;;;;;;17.05;13.80;;;13.10;93.50;;;;;;4953792;29;20024;-84
2023/09/27 05:24:23;;;;;;;16.00;12.15;;;13.10;93.30;;;;;;4956078;28;20027;-83
2023/09/27 05:26:48;;;;;;;13.77;11.25;;;13.10;93.40;;;;;;4968730;29;20034;-81
2023/09/27 05:29:14;;;;;;;17.00;12.00;;;13.10;92.90;;;;;;4946537;29;20055;-80
2023/09/27 05:31:41;;;;;;;16.23;11.40;;;13.10;92.90;;;;;;4957636;29;20032;-83
2023/09/27 05:34:07;;;;;;;17.42;12.18;;;13.20;92.90;;;;;;4957135;29;20027;-82
2023/09/27 05:36:33;;;;;;;15.75;13.02;;;13.20;92.80;;;;;;4936944;29;20030;-82
2023/09/27 05:39:02;;;;;;;53.92;15.15;;;13.20;92.70;;;;;;4955478;29;20028;-82
2023/09/27 05:41:28;;;;;;;33.83;15.60;;;13.20;92.70;;;;;;4957514;29;20074;-83
2023/09/27 05:43:54;;;;;;;24.63;14.43;;;13.30;92.80;;;;;;4957242;29;20316;-82
2023/09/27 05:46:20;;;;;;;39.88;15.02;;;13.40;92.70;;;;;;4941147;29;20042;-83
2023/09/27 05:48:46;;;;;;;29.02;15.25;;;13.50;92.70;;;;;;4960351;29;20027;-82
2023/09/27 05:51:17;;;;;;;24.85;15.20;;;13.50;92.50;;;;;;4960863;29;20131;-83
2023/09/27 05:53:43;;;;;;;25.73;15.98;;;13.50;92.30;;;;;;4936539;29;20046;-81
2023/09/27 05:56:13;;;;;;;18.38;13.43;;;13.60;92.20;;;;;;4953377;29;20035;-86
2023/09/27 05:58:39;;;;;;;18.27;13.05;;;13.60;92.20;;;;;;4956397;28;20020;-83
2023/09/27 06:01:07;;;;;;;26.40;13.30;;;13.60;92.20;;;;;;4957199;29;20031;-83
2023/09/27 06:03:35;;;;;;;93.55;29.42;;;13.70;92.20;;;;;;4957017;29;20019;-82
2023/09/27 06:06:03;;;;;;;39.47;16.65;;;13.70;92.20;;;;;;4956584;29;20012;-81
2023/09/27 06:08:29;;;;;;;;;;;13.70;92.00;;;;;;4957005;29;20011;-80
2023/09/27 06:11:11;;;;;;;21.92;13.57;;;13.70;91.90;;;;;;4957800;29;19917;-84
2023/09/27 06:13:37;;;;;;;40.50;18.88;;;13.80;91.90;;;;;;4939143;29;20082;-82
2023/09/27 06:16:11;;;;;;;23.15;13.55;;;13.80;91.70;;;;;;4939031;29;20035;-83
2023/09/27 06:18:37;;;;;;;41.92;17.95;;;13.90;91.60;;;;;;4940135;29;20020;-81
2023/09/27 06:21:04;;;;;;;23.67;14.68;;;14.00;91.50;;;;;;4956102;29;20066;-81
2023/09/27 06:23:30;;;;;;;23.52;14.73;;;14.00;91.40;;;;;;4956225;29;20023;-84
2023/09/27 06:25:56;;;;;;;29.77;15.20;;;14.10;91.30;;;;;;4958013;29;20033;-84
2023/09/27 06:28:21;;;;;;;21.95;14.95;;;14.20;91.10;;;;;;4957515;29;20448;-84
2023/09/27 06:30:47;;;;;;;22.67;14.00;;;14.30;90.90;;;;;;4956584;28;20070;-85
2023/09/27 06:33:13;;;;;;;21.42;14.70;;;14.40;90.70;;;;;;4957026;29;20019;-88
2023/09/27 06:35:40;;;;;;;30.48;15.05;;;14.40;90.30;;;;;;4938160;29;20074;-85
2023/09/27 06:38:06;;;;;;;27.45;17.92;;;14.50;90.50;;;;;;4939737;29;20110;-85
2023/09/27 06:40:32;;;;;;;58.42;23.45;;;14.60;90.60;;;;;;4948348;29;20078;-86
2023/09/27 06:42:57;;;;;;;31.75;15.55;;;14.60;90.50;;;;;;4951118;29;20019;-86
2023/09/27 06:45:23;;;;;;;40.08;17.65;;;14.70;90.70;;;;;;4953185;29;20500;-85
2023/09/27 06:47:49;;;;;;;23.33;12.70;;;14.80;90.30;;;;;;4950809;29;20046;-86
2023/09/27 06:50:19;;;;;;;23.77;13.75;;;14.80;90.10;;;;;;4956264;29;20528;-84
2023/09/27 06:52:46;;;;;;;16.88;11.40;;;14.90;89.50;;;;;;4950209;29;20056;-86
2023/09/27 06:55:16;;;;;;;21.55;12.48;;;14.90;89.30;;;;;;4936005;29;20039;-84
2023/09/27 06:57:44;;;;;;;25.67;13.18;;;15.00;88.70;;;;;;4953170;29;20038;-85
2023/09/27 07:00:18;;;;;;;27.33;13.23;;;15.10;88.60;;;;;;4964146;29;20373;-86
2023/09/27 07:02:48;;;;;;;16.10;12.02;;;15.20;88.20;;;;;;4954365;29;20400;-86
2023/09/27 07:05:15;;;;;;;20.13;12.98;;;15.30;87.60;;;;;;4939251;29;20058;-87
2023/09/27 07:07:41;;;;;;;23.00;12.32;;;15.40;86.90;;;;;;4944113;29;20027;-85
2023/09/27 07:10:09;;;;;;;24.63;14.15;;;15.50;86.90;;;;;;4955749;29;20034;-85
2023/09/27 07:12:35;;;;;;;;;;;15.50;87.10;;;;;;4940183;29;20032;-85
2023/09/27 07:15:02;;;;;;;15.30;11.75;;;15.70;87.40;;;;;;4956022;29;20047;-84
2023/09/27 07:17:29;;;;;;;24.33;12.13;;;15.80;86.10;;;;;;4956659;29;20018;-86
2023/09/27 07:19:56;;;;;;;17.98;12.15;;;16.60;85.40;;;;;;4959046;29;20050;-85
2023/09/27 07:22:23;;;;;;;17.35;11.80;;;18.30;82.10;;;;;;4957926;29;20062;-86
2023/09/27 07:24:48;;;;;;;17.93;11.17;;;20.40;76.80;;;;;;4938475;29;20027;-87
2023/09/27 07:27:14;;;;;;;18.23;11.13;;;22.50;70.40;;;;;;4956343;29;20035;-83
2023/09/27 07:29:40;;;;;;;13.65;9.95;;;24.60;64.00;;;;;;4938689;29;20093;-85
2023/09/27 07:32:06;;;;;;;24.25;13.32;;;26.40;58.50;;;;;;4938831;29;20114;-86
2023/09/27 07:34:32;;;;;;;17.50;10.05;;;27.60;54.70;;;;;;4961778;29;20027;-85
2023/09/27 07:36:58;;;;;;;15.27;10.07;;;28.50;50.80;;;;;;4974763;29;20030;-85
2023/09/27 07:39:24;;;;;;;15.52;10.25;;;28.50;49.20;;;;;;4955018;29;20034;-85
2023/09/27 07:41:50;;;;;;;13.60;9.93;;;28.50;48.30;;;;;;4956787;29;20029;-84
2023/09/27 07:44:17;;;;;;;12.15;9.38;;;28.60;48.20;;;;;;4958831;29;20083;-85
2023/09/27 07:46:44;;;;;;;15.25;9.70;;;28.80;47.30;;;;;;4957984;29;20063;-85
2023/09/27 07:49:10;;;;;;;18.60;10.18;;;28.70;46.80;;;;;;4940376;29;20036;-85
2023/09/27 07:51:36;;;;;;;10.82;7.38;;;28.40;47.30;;;;;;4956367;29;20087;-87
2023/09/27 07:54:08;;;;;;;15.65;9.45;;;28.60;46.10;;;;;;4934378;29;20030;-86
2023/09/27 07:56:39;;;;;;;11.25;8.95;;;28.90;46.20;;;;;;4952836;29;20027;-87
2023/09/27 07:59:06;;;;;;;11.70;8.80;;;29.20;45.80;;;;;;4938556;29;20034;-85
2023/09/27 08:01:33;;;;;;;12.18;8.00;;;29.60;44.60;;;;;;4955068;29;20366;-85
2023/09/27 08:04:12;;;;;;;10.45;7.28;;;29.80;44.40;;;;;;4954728;29;20024;-85
2023/09/27 08:06:38;;;;;;;14.32;7.07;;;30.00;43.70;;;;;;4954867;29;20031;-86
2023/09/27 08:09:06;;;;;;;10.93;6.80;;;30.20;43.10;;;;;;4955562;29;20682;-84
2023/09/27 08:11:32;;;;;;;10.90;6.50;;;30.30;43.20;;;;;;4955602;29;20381;-86
2023/09/27 08:13:58;;;;;;;9.47;7.00;;;30.50;42.80;;;;;;4938117;29;20039;-85
2023/09/27 08:16:26;;;;;;;10.97;6.97;;;31.00;42.60;;;;;;4937559;29;20289;-85
2023/09/27 08:18:52;;;;;;;14.32;7.95;;;31.90;42.30;;;;;;4954643;29;20512;-87
2023/09/27 08:21:18;;;;;;;8.10;7.07;;;32.60;42.10;;;;;;4937931;29;20062;-86
2023/09/27 08:23:44;;;;;;;;;;;32.90;40.70;;;;;;4956875;29;20815;-87
2023/09/27 08:26:13;;;;;;;8.43;7.43;;;33.70;42.70;;;;;;4938252;29;20010;-86
2023/09/27 08:28:39;;;;;;;11.85;7.47;;;34.30;39.70;;;;;;4939893;29;20035;-86
2023/09/27 08:31:05;;;;;;;12.27;7.43;;;34.70;38.80;;;;;;4957703;29;20063;-87
2023/09/27 08:33:31;;;;;;;24.27;7.93;;;34.90;38.20;;;;;;4954718;29;20122;-86
2023/09/27 08:35:57;;;;;;;10.97;6.57;;;35.00;37.80;;;;;;4956868;29;20035;-87
2023/09/27 08:38:23;;;;;;;15.10;9.13;;;35.40;38.20;;;;;;4955615;29;20366;-87
2023/09/27 08:40:49;;;;;;;11.07;6.53;;;35.70;37.60;;;;;;4961269;29;20055;-88
2023/09/27 08:43:15;;;;;;;13.50;7.00;;;36.20;37.60;;;;;;4974073;29;20124;-86
2023/09/27 08:45:42;;;;;;;7.53;5.47;;;36.10;36.50;;;;;;4959185;29;20440;-86
2023/09/27 08:48:20;;;;;;;9.85;6.57;;;35.80;36.20;;;;;;4937142;29;20381;-86
2023/09/27 08:50:46;;;;;;;9.13;5.85;;;35.80;36.70;;;;;;4934356;29;20031;-86
2023/09/27 08:53:12;;;;;;;10.48;6.00;;;35.80;36.40;;;;;;4957202;29;20024;-86
2023/09/27 08:55:38;;;;;;;;;;;36.10;36.20;;;;;;4943237;29;20056;-87
2023/09/27 08:58:06;;;;;;;;;;;36.20;36.50;;;;;;4939049;29;20574;-86
2023/09/27 09:00:32;;;;;;;6.90;3.92;;;35.20;36.60;;;;;;4941001;29;20000;-87
2023/09/27 09:03:00;;;;;;;5.47;3.60;;;34.40;37.00;;;;;;4943530;29;20473;-88
2023/09/27 09:05:30;;;;;;;5.75;4.30;;;34.30;37.00;;;;;;4957697;29;20031;-86
2023/09/27 09:07:57;;;;;;;4.88;3.85;;;34.30;38.00;;;;;;4960792;29;20047;-86
2023/09/27 09:10:23;;;;;;;6.30;3.60;;;34.60;37.10;;;;;;4967265;29;20120;-86
2023/09/27 09:12:50;;;;;;;4.28;3.60;;;34.70;36.50;;;;;;4966909;29;20389;-86
2023/09/27 09:15:47;;;;;;;4.97;2.83;;;34.70;36.40;;;;;;4971650;29;20151;-87
2023/09/27 09:18:28;;;;;;;5.57;3.45;;;34.40;37.00;;;;;;4953036;29;20031;-86
2023/09/27 09:20:59;;;;;;;6.82;3.50;;;34.50;37.30;;;;;;4958957;29;20430;-88
2023/09/27 09:23:33;;;;;;;5.40;3.45;;;34.80;36.80;;;;;;4957570;29;20046;-87
2023/09/27 09:26:00;;;;;;;6.00;4.15;;;34.90;36.90;;;;;;4959564;29;20015;-88
2023/09/27 09:28:27;;;;;;;5.38;4.00;;;35.30;36.60;;;;;;4948581;29;20027;-87
2023/09/27 09:30:54;;;;;;;6.20;4.57;;;35.50;35.90;;;;;;4962727;29;20103;-87
2023/09/27 09:33:20;;;;;;;;;;;35.40;35.80;;;;;;4958941;29;20027;-87
2023/09/27 09:35:46;;;;;;;9.98;3.58;;;34.90;37.30;;;;;;4941349;29;19921;-87
2023/09/27 09:38:23;;;;;;;6.68;4.65;;;35.10;36.90;;;;;;4964615;29;20066;-86
2023/09/27 09:40:57;;;;;;;5.13;3.40;;;35.70;36.00;;;;;;4968800;29;20020;-88
2023/09/27 09:43:37;;;;;;;7.25;3.42;;;35.60;35.90;;;;;;4931901;29;20121;-89
2023/09/27 09:46:08;;;;;;;4.35;3.00;;;35.40;35.90;;;;;;4941831;29;20031;-88
2023/09/27 09:48:35;;;;;;;4.07;3.47;;;35.00;35.80;;;;;;4944536;29;20047;-87
2023/09/27 09:51:08;;;;;;;4.90;2.83;;;34.70;36.10;;;;;;4947421;29;20027;-88
2023/09/27 09:53:38;;;;;;;3.30;2.75;;;34.50;36.40;;;;;;4949929;29;20167;-87
2023/09/27 09:56:06;;;;;;;6.47;2.83;;;34.40;37.20;;;;;;4964035;29;20042;-89
2023/09/27 09:58:51;;;;;;;7.22;3.08;;;34.20;36.70;;;;;;4957666;29;20039;-86
2023/09/27 10:01:21;;;;;;;3.13;2.47;;;34.30;36.70;;;;;;4960828;29;20031;-87
2023/09/27 10:03:50;;;;;;;5.30;2.50;;;34.10;36.60;;;;;;4957126;29;20027;-87
2023/09/27 10:06:19;;;;;;;4.82;3.75;;;34.00;36.40;;;;;;4957205;29;20050;-86
2023/09/27 10:08:47;;;;;;;9.25;3.30;;;33.90;36.70;;;;;;4943687;29;20114;-86
2023/09/27 10:11:14;;;;;;;6.57;4.82;;;33.40;36.90;;;;;;4957087;28;20051;-86
2023/09/27 10:13:41;;;;;;;4.10;3.00;;;;;;;;;;4941233;29;20023;-88
2023/09/27 10:16:09;;;;;;;8.25;3.13;;;32.10;38.00;;;;;;4949791;29;20094;-87
2023/09/27 10:18:40;;;;;;;5.60;3.50;;;29.00;41.20;;;;;;4956538;29;20035;-86
2023/09/27 10:21:12;;;;;;;6.80;3.55;;;27.60;43.00;;;;;;4961502;29;20074;-88
2023/09/27 10:23:47;;;;;;;4.93;2.50;;;26.40;44.70;;;;;;4960305;29;20019;-88
2023/09/27 10:26:28;;;;;;;8.98;3.65;;;25.40;46.30;;;;;;4961960;29;20027;-87
2023/09/27 10:29:18;;;;;;;4.32;3.33;;;24.50;47.80;;;;;;4967027;29;20023;-88
2023/09/27 10:31:56;;;;;;;4.25;3.50;;;23.80;49.70;;;;;;4954798;29;20027;-88
2023/09/27 10:34:25;;;;;;;5.10;3.22;;;23.00;51.30;;;;;;4952384;29;20035;-86
2023/09/27 10:36:51;;;;;;;6.35;3.70;;;22.50;52.20;;;;;;4942106;29;20027;-88
2023/09/27 10:39:17;;;;;;;7.88;3.42;;;22.20;53.30;;;;;;4957596;29;20388;-86
2023/09/27 10:41:46;;;;;;;8.88;4.82;;;21.90;53.70;;;;;;4957997;29;20455;-85
2023/09/27 10:44:32;;;;;;;7.93;3.85;;;21.60;54.70;;;;;;4957231;29;20092;-88
2023/09/27 10:47:00;;;;;;;10.02;5.25;;;21.40;55.30;;;;;;4957849;29;20114;-86
2023/09/27 10:49:33;;;;;;;7.05;3.85;;;21.10;55.90;;;;;;4939364;29;20093;-87
2023/09/27 10:51:59;;;;;;;5.25;4.40;;;21.00;56.40;;;;;;4956873;29;20512;-88
2023/09/27 10:54:28;;;;;;;9.57;7.75;;;20.90;56.90;;;;;;4956890;29;20035;-87
2023/09/27 10:56:55;;;;;;;6.15;3.90;;;20.90;57.20;;;;;;4956823;29;20027;-87
2023/09/27 10:59:28;;;;;;;7.25;4.53;;;20.70;57.40;;;;;;4939293;29;20063;-87
2023/09/27 11:01:56;;;;;;;6.10;4.22;;;20.70;57.50;;;;;;4956368;29;20030;-88
2023/09/27 11:04:23;;;;;;;9.45;4.07;;;20.60;57.90;;;;;;4939322;29;20441;-86
2023/09/27 11:06:53;;;;;;;8.32;4.80;;;20.60;58.00;;;;;;4955910;29;20027;-85
2023/09/27 11:09:23;;;;;;;5.88;3.55;;;20.50;58.30;;;;;;4938749;29;20027;-88
2023/09/27 11:11:54;;;;;;;12.98;6.70;;;20.40;58.40;;;;;;4956339;29;20437;-86
2023/09/27 11:14:34;;;;;;;7.00;4.22;;;20.40;59.00;;;;;;4955922;29;20086;-86
2023/09/27 11:17:22;;;;;;;9.60;4.32;;;20.40;59.10;;;;;;4939106;29;20114;-86
2023/09/27 11:19:48;;;;;;;9.82;4.53;;;20.50;59.50;;;;;;4945757;29;20452;-85
2023/09/27 11:22:28;;;;;;;8.60;4.53;;;20.50;59.60;;;;;;4955699;28;20028;-87
2023/09/27 11:24:54;;;;;;;5.95;4.68;;;20.50;59.50;;;;;;4956854;29;20027;-86
2023/09/27 11:27:21;;;;;;;8.60;4.60;;;20.50;58.90;;;;;;4955477;29;20066;-86
2023/09/27 11:29:53;;;;;;;8.82;4.43;;;20.50;59.20;;;;;;4955501;28;20070;-86
2023/09/27 11:32:20;;;;;;;8.27;5.07;;;20.50;60.00;;;;;;4955687;29;20477;-86
2023/09/27 11:34:56;;;;;;;8.50;5.10;;;20.40;59.50;;;;;;4955215;29;20035;-86
2023/09/27 11:37:26;;;;;;;7.32;4.90;;;20.30;59.10;;;;;;4955504;29;20249;-86
2023/09/27 11:39:54;;;;;;;7.03;4.30;;;20.30;59.10;;;;;;4938533;29;20107;-87
2023/09/27 11:42:21;;;;;;;7.03;4.40;;;20.30;59.10;;;;;;4957880;29;20027;-87
2023/09/27 11:45:12;;;;;;;;;;;20.10;59.20;;;;;;4942809;29;20031;-85
2023/09/27 11:48:05;;;;;;;11.57;6.38;;;20.10;58.80;;;;;;4959670;29;19961;-87
2023/09/27 11:50:31;;;;;;;10.07;4.97;;;20.00;59.70;;;;;;4956753;29;20061;-85
2023/09/27 11:52:56;;;;;;;10.40;5.93;;;20.00;59.70;;;;;;4955221;29;20020;-86
2023/09/27 11:55:22;;;;;;;20.73;8.98;;;20.00;59.80;;;;;;4957813;29;20042;-85
2023/09/27 11:57:48;;;;;;;9.20;4.75;;;20.10;60.20;;;;;;4955514;29;20037;-86
2023/09/27 12:00:17;;;;;;;8.55;4.63;;;20.10;59.50;;;;;;4957652;29;20485;-87
2023/09/27 12:02:43;;;;;;;7.20;4.65;;;20.10;59.90;;;;;;4956300;29;20031;-87
2023/09/27 12:05:09;;;;;;;12.10;4.65;;;20.10;60.00;;;;;;4937794;29;20145;-89
2023/09/27 12:07:36;;;;;;;6.25;4.80;;;20.10;60.00;;;;;;4955610;29;20445;-87
2023/09/27 12:10:02;;;;;;;15.13;5.47;;;20.10;59.90;;;;;;4956675;29;20031;-86
2023/09/27 12:12:28;;;;;;;9.32;4.32;;;20.10;59.80;;;;;;4956702;29;20512;-85
2023/09/27 12:14:54;;;;;;;9.30;6.07;;;20.10;60.00;;;;;;4937970;29;20536;-86
2023/09/27 12:17:20;;;;;;;11.60;5.50;;;20.20;59.60;;;;;;4955797;29;20036;-87
2023/09/27 12:19:46;;;;;;;6.80;4.57;;;20.40;59.30;;;;;;4956368;29;20046;-86
2023/09/27 12:22:12;;;;;;;6.35;4.15;;;20.40;58.30;;;;;;4962828;29;20027;-86
2023/09/27 12:24:39;;;;;;;10.80;5.10;;;20.50;58.10;;;;;;4965792;29;20023;-86
2023/09/27 12:27:05;;;;;;;6.53;5.80;;;20.40;58.20;;;;;;4956268;29;20114;-87
2023/09/27 12:29:31;;;;;;;8.93;4.63;;;20.40;58.10;;;;;;4938248;29;20153;-86
2023/09/27 12:31:57;;;;;;;8.90;6.45;;;20.30;58.40;;;;;;4938437;29;20480;-85
2023/09/27 12:34:22;;;;;;;9.20;4.95;;;20.30;58.60;;;;;;4937574;29;20082;-86
2023/09/27 12:36:48;;;;;;;11.07;4.63;;;20.30;58.60;;;;;;4955811;29;20125;-87
2023/09/27 12:39:14;;;;;;;18.63;5.95;;;20.20;58.20;;;;;;4938199;29;20027;-85